Agat, Guam
Current Conditions -  °F | °C
As of 11:54 AM on Saturday 20 Dec 2014 (Local Time) from PGUM Reporting Station
Few Clouds Few Clouds  
Wind Chill: 89°   Ceiling: Unl
Heat Index: 97°   Visibility: 10mi
Dew Point: 73°   Wind: 20mph
Humidity: 59%   Direction: 80°E
Pressure: 29.9"   Gusts: 30mph
Location:  13.38°N, 144.65°E
Report Text: PGUM 200154Z 08017G26KT 10SM FEW028 32/23 A2990 RMK AO2 PK WND 07030/0110 SLP115 T03170228
Loading
Personal Weather Stations






























Interactive Weather Map New forecast layout! Learn more

10-Day Weather Forecast

Advertisements
Track Severe Weather on mobile